Time;durP1;ratioP1;P1;durP2;ratioP2;P2;SDS_P1;SDS_P2;PMS_P1;PMS_P2;Temp;Humidity;BMP_temperature;BMP_pressure;BME280_temperature;BME280_humidity;BME280_pressure;Samples;Min_cycle;Max_cycle;Signal;HPM_P1;HPM_P2
2021/12/04 00:02:01;;;;;;;17.58;5.32;;;;;;;8.91;83.56;95803.47;5097034;28;20382;-65
2021/12/04 00:04:31;;;;;;;8.45;4.70;;;;;;;8.97;83.57;95803.22;5097180;28;20106;-66
2021/12/04 00:06:57;;;;;;;10.60;4.85;;;;;;;9.06;83.25;95801.16;5096995;28;20039;-64
2021/12/04 00:09:22;;;;;;;12.82;5.03;;;;;;;9.11;83.47;95804.38;5097061;28;20020;-65
2021/12/04 00:11:56;;;;;;;12.68;5.72;;;;;;;9.02;83.31;95797.81;5097063;28;20043;-66
2021/12/04 00:14:22;;;;;;;12.18;5.38;;;;;;;8.89;83.24;95792.28;5097141;28;20063;-64
2021/12/04 00:16:48;;;;;;;9.88;5.45;;;;;;;8.79;83.52;95767.53;5096898;28;20493;-66
2021/12/04 00:19:14;;;;;;;10.80;5.55;;;;;;;8.78;83.13;95773.63;5096896;28;20039;-64
2021/12/04 00:21:39;;;;;;;9.15;5.70;;;;;;;8.75;83.53;95781.59;5096490;28;20051;-66
2021/12/04 00:24:05;;;;;;;13.45;5.38;;;;;;;8.72;83.32;95785.19;5096666;28;20016;-66
2021/12/04 00:26:31;;;;;;;12.90;5.15;;;;;;;8.74;83.45;95775.53;5096764;28;20027;-65
2021/12/04 00:28:56;;;;;;;14.48;5.43;;;;;;;8.76;83.55;95770.25;5096703;28;20020;-65
2021/12/04 00:31:22;;;;;;;12.02;6.07;;;;;;;8.74;83.55;95765.09;5096710;28;20056;-66
2021/12/04 00:33:49;;;;;;;13.38;5.55;;;;;;;8.70;83.64;95773.97;5096543;28;20021;-64
2021/12/04 00:36:29;;;;;;;11.27;5.70;;;;;;;8.71;83.78;95779.13;5096519;28;20022;-67
2021/12/04 00:49:50;;;;;;;10.05;6.22;;;;;;;8.43;84.01;95766.38;5096620;28;20055;-67
2021/12/04 00:52:16;;;;;;;9.75;6.72;;;;;;;8.32;84.38;95767.69;5096224;28;20048;-68
2021/12/04 00:54:43;;;;;;;13.65;6.00;;;;;;;8.32;84.62;95770.28;5096154;28;20480;-63
2021/12/04 00:57:09;;;;;;;11.25;6.93;;;;;;;8.36;84.55;95757.97;5096185;28;20493;-66
2021/12/04 00:59:34;;;;;;;16.80;5.97;;;;;;;8.30;84.74;95763.41;5096175;28;20032;-64
2021/12/04 01:02:00;;;;;;;9.75;6.50;;;;;;;8.34;85.14;95751.97;5096152;28;20032;-68
2021/12/04 01:04:26;;;;;;;9.98;6.65;;;;;;;8.39;84.68;95744.81;5096089;28;20099;-68
2021/12/04 01:06:51;;;;;;;14.80;6.68;;;;;;;8.35;84.86;95751.06;5095730;28;20537;-63
2021/12/04 01:09:21;;;;;;;9.68;6.85;;;;;;;8.28;84.85;95741.81;5095817;28;20016;-66
2021/12/04 01:11:48;;;;;;;8.60;5.28;;;;;;;8.28;84.89;95752.22;5095895;28;20020;-63
2021/12/04 01:14:16;;;;;;;8.40;6.63;;;;;;;8.22;85.02;95754.16;5095787;28;20062;-64
2021/12/04 01:16:42;;;;;;;8.98;6.47;;;;;;;8.19;85.43;95758.66;5095779;28;20066;-62
2021/12/04 01:19:08;;;;;;;7.68;5.57;;;;;;;8.19;84.61;95763.88;5095668;28;20363;-62
2021/12/04 01:21:34;;;;;;;11.20;5.47;;;;;;;8.10;84.11;95757.28;5095297;28;20105;-67
2021/12/04 01:23:59;;;;;;;6.60;4.72;;;;;;;7.98;83.74;95740.41;5095725;28;20024;-65
2021/12/04 01:26:25;;;;;;;7.63;4.63;;;;;;;7.72;83.79;95747.47;5095510;28;20363;-64
2021/12/04 01:28:51;;;;;;;7.00;4.40;;;;;;;7.64;84.27;95746.91;5095458;28;20103;-67
2021/12/04 01:31:16;;;;;;;6.30;4.13;;;;;;;7.45;84.54;95740.69;5095472;28;20031;-64
2021/12/04 01:33:42;;;;;;;4.90;4.35;;;;;;;7.40;84.54;95749.56;5095363;28;20016;-66
2021/12/04 01:36:09;;;;;;;5.75;4.05;;;;;;;7.25;84.44;95746.63;5095452;28;20024;-64
2021/12/04 01:38:35;;;;;;;4.22;3.08;;;;;;;7.15;84.45;95750.50;5095363;28;20020;-63
2021/12/04 01:41:01;;;;;;;3.85;2.80;;;;;;;7.14;84.33;95736.66;5095221;28;20032;-66
2021/12/04 01:43:26;;;;;;;3.42;2.70;;;;;;;7.09;83.94;95735.97;5095308;28;20026;-66
2021/12/04 01:45:55;;;;;;;2.83;2.30;;;;;;;6.94;84.40;95740.84;5095288;28;20028;-65
2021/12/04 01:48:21;;;;;;;2.80;2.03;;;;;;;6.89;84.14;95741.91;5095160;28;20027;-67
2021/12/04 01:50:47;;;;;;;3.60;1.80;;;;;;;6.87;84.45;95726.38;5095115;28;20039;-62
2021/12/04 01:53:13;;;;;;;2.58;2.25;;;;;;;6.81;85.11;95732.59;5095031;28;20390;-63
2021/12/04 01:55:38;;;;;;;3.42;2.20;;;;;;;6.74;85.19;95725.94;5093676;28;20043;-64
2021/12/04 01:58:05;;;;;;;2.28;1.83;;;;;;;6.77;84.81;95722.41;5094994;28;20027;-62
2021/12/04 02:00:37;;;;;;;2.17;2.00;;;;;;;6.74;85.34;95719.91;5094937;28;20024;-62
2021/12/04 02:03:04;;;;;;;1.77;1.48;;;;;;;6.68;84.48;95719.22;5095044;28;20445;-63
2021/12/04 02:05:31;;;;;;;2.42;1.40;;;;;;;6.65;84.20;95736.69;5094791;28;20090;-65
2021/12/04 02:07:58;;;;;;;3.05;1.60;;;;;;;6.63;84.01;95723.75;5093616;28;20028;-68
2021/12/04 02:10:24;;;;;;;1.50;1.40;;;;;;;6.55;84.09;95730.94;5094811;28;20031;-66
2021/12/04 02:12:49;;;;;;;2.20;1.30;;;;;;;6.51;84.33;95727.63;5094790;28;20020;-65
2021/12/04 02:15:17;;;;;;;1.95;1.15;;;;;;;6.44;84.55;95723.50;5094582;28;20024;-66
2021/12/04 02:17:46;;;;;;;1.15;1.10;;;;;;;6.28;83.78;95733.59;5093960;28;20080;-64
2021/12/04 02:20:17;;;;;;;0.80;0.80;;;;;;;6.32;84.07;95717.84;5094522;28;20024;-65
2021/12/04 02:22:43;;;;;;;1.58;0.90;;;;;;;6.23;84.44;95725.94;5094254;28;20052;-64
2021/12/04 02:25:09;;;;;;;0.98;0.80;;;;;;;6.16;83.74;95727.91;5094467;28;20020;-63
2021/12/04 02:27:36;;;;;;;1.17;1.08;;;;;;;6.14;83.57;95728.88;5094464;28;20101;-65
2021/12/04 02:30:06;;;;;;;0.90;0.90;;;;;;;5.95;83.03;95729.44;5094469;28;20028;-63
2021/12/04 02:32:32;;;;;;;1.25;1.15;;;;;;;5.94;84.15;95733.75;5094319;28;20032;-62
2021/12/04 02:34:58;;;;;;;0.70;0.70;;;;;;;5.91;83.76;95731.28;5094247;28;20111;-64
2021/12/04 02:37:24;;;;;;;1.00;0.90;;;;;;;5.82;83.90;95731.59;5094210;28;20056;-65
2021/12/04 02:39:57;;;;;;;0.80;0.80;;;;;;;5.80;84.39;95733.38;5094137;28;20426;-63
2021/12/04 02:42:24;;;;;;;1.02;0.80;;;;;;;5.76;84.24;95731.78;5094115;28;20031;-64
2021/12/04 02:44:51;;;;;;;1.10;1.00;;;;;;;5.78;84.40;95725.63;5094016;28;20067;-63
2021/12/04 02:47:16;;;;;;;0.98;0.90;;;;;;;5.70;84.24;95722.44;5093997;28;20060;-66
2021/12/04 02:49:43;;;;;;;3.50;0.88;;;;;;;5.63;84.39;95729.56;5094081;28;20052;-64
2021/12/04 02:52:10;;;;;;;2.03;0.68;;;;;;;5.67;84.57;95728.59;5093839;28;20026;-63
2021/12/04 02:54:38;;;;;;;0.73;0.73;;;;;;;5.63;84.23;95723.53;5093985;28;20374;-66
2021/12/04 02:57:06;;;;;;;0.68;0.68;;;;;;;5.56;83.45;95718.53;5093871;28;20032;-66
2021/12/04 02:59:37;;;;;;;0.60;0.60;;;;;;;5.50;83.55;95730.81;5093745;28;20526;-64
2021/12/04 03:02:03;;;;;;;;;;;;;;;5.49;83.71;95721.34;5094168;28;20036;-66
2021/12/04 03:04:31;;;;;;;2.67;0.80;;;;;;;5.42;83.83;95720.72;5093800;28;19916;-63
2021/12/04 03:06:56;;;;;;;0.82;0.70;;;;;;;5.29;84.03;95723.66;5093686;28;20099;-66
2021/12/04 03:09:22;;;;;;;0.80;0.65;;;;;;;5.24;83.61;95722.94;5093561;28;20115;-64
2021/12/04 03:11:47;;;;;;;0.90;0.90;;;;;;;5.26;83.53;95720.31;5093604;28;20066;-66
2021/12/04 03:14:14;;;;;;;0.60;0.60;;;;;;;5.16;83.65;95719.75;5093686;28;20028;-65
2021/12/04 03:16:41;;;;;;;0.60;0.60;;;;;;;5.16;84.03;95720.59;5093702;28;20078;-63
2021/12/04 03:19:07;;;;;;;0.90;0.70;;;;;;;5.09;83.79;95713.88;5093421;28;20028;-65
2021/12/04 03:21:35;;;;;;;1.08;0.80;;;;;;;5.11;84.17;95722.47;5093131;28;20048;-65
2021/12/04 03:24:04;;;;;;;0.50;0.50;;;;;;;5.03;83.74;95711.47;5093377;28;20023;-65
2021/12/04 03:26:30;;;;;;;1.63;0.90;;;;;;;5.01;84.48;95713.25;5093369;28;20375;-63
2021/12/04 03:28:57;;;;;;;0.70;0.70;;;;;;;5.03;84.39;95719.25;5093235;28;20024;-64
2021/12/04 03:42:06;;;;;;;0.60;0.60;;;;;;;4.87;83.39;95700.69;5093313;28;20448;-65
2021/12/04 03:44:32;;;;;;;0.57;0.57;;;;;;;4.87;83.69;95704.13;5093168;28;20016;-65
2021/12/04 03:46:59;;;;;;;0.90;0.90;;;;;;;4.84;83.64;95721.53;5093051;28;20520;-65
2021/12/04 03:49:25;;;;;;;0.90;0.90;;;;;;;4.80;83.72;95720.75;5093085;28;20032;-66
2021/12/04 03:51:50;;;;;;;0.63;0.63;;;;;;;4.80;83.66;95747.53;5093196;28;20369;-62
2021/12/04 03:54:16;;;;;;;0.90;0.90;;;;;;;4.83;83.89;95749.19;5093176;28;20051;-63
2021/12/04 03:56:42;;;;;;;1.10;1.00;;;;;;;4.77;83.39;95747.63;5093051;28;20024;-66
2021/12/04 03:59:08;;;;;;;1.00;0.90;;;;;;;4.77;83.35;95745.03;5092993;28;20016;-66
2021/12/04 04:01:33;;;;;;;1.45;1.35;;;;;;;4.76;83.41;95751.06;5091757;28;20024;-62
2021/12/04 04:03:59;;;;;;;1.15;1.05;;;;;;;4.80;83.35;95741.50;5092946;28;20031;-64
2021/12/04 04:06:25;;;;;;;3.17;1.10;;;;;;;4.76;82.83;95740.72;5092955;28;20084;-65
2021/12/04 04:08:50;;;;;;;0.98;0.95;;;;;;;4.77;83.34;95742.44;5092947;28;20020;-65
2021/12/04 04:11:16;;;;;;;1.02;0.98;;;;;;;4.78;83.08;95753.63;5093014;28;20020;-64
2021/12/04 04:13:43;;;;;;;1.20;1.00;;;;;;;4.80;82.87;95754.44;5092884;28;20020;-66
2021/12/04 04:16:09;;;;;;;1.52;1.27;;;;;;;4.83;83.07;95759.53;5092959;28;20032;-62
2021/12/04 04:18:34;;;;;;;0.82;0.82;;;;;;;4.80;82.81;95768.25;5092803;28;20031;-66
2021/12/04 04:21:00;;;;;;;1.08;1.00;;;;;;;4.76;82.69;95769.22;5092546;28;20022;-67
2021/12/04 04:23:26;;;;;;;1.50;1.30;;;;;;;4.80;82.58;95757.91;5092865;28;20374;-66
2021/12/04 04:25:52;;;;;;;1.88;1.00;;;;;;;4.77;81.98;95759.72;5092879;28;20028;-62
2021/12/04 04:28:18;;;;;;;1.30;1.20;;;;;;;4.75;82.38;95761.47;5092725;28;20084;-64
2021/12/04 04:30:43;;;;;;;1.17;1.10;;;;;;;4.69;82.21;95765.09;5092721;28;20028;-65
2021/12/04 04:33:12;;;;;;;1.00;0.90;;;;;;;4.66;82.69;95765.16;5092698;28;20051;-66
2021/12/04 04:35:38;;;;;;;2.55;0.90;;;;;;;4.62;81.90;95759.25;5092782;28;20027;-62
2021/12/04 05:00:04;;;;;;;0.90;0.90;;;;;;;4.31;83.76;95762.63;5096239;28;20042;-64
2021/12/04 05:10:53;;;;;;;1.60;1.20;;;;;;;4.21;85.34;95748.22;5095985;28;20039;-63
2021/12/04 05:13:21;;;;;;;1.83;1.30;;;;;;;4.26;85.17;95765.34;5095807;28;20028;-63
2021/12/04 05:21:05;;;;;;;2.75;1.35;;;;;;;4.27;85.05;95774.81;5095699;28;20031;-65
2021/12/04 05:23:36;;;;;;;1.45;1.10;;;;;;;4.25;84.98;95773.97;5095749;28;20508;-63
2021/12/04 05:26:07;;;;;;;0.98;0.98;;;;;;;4.27;85.11;95772.22;5095680;28;20084;-62
2021/12/04 05:28:33;;;;;;;3.60;1.02;;;;;;;4.26;84.77;95762.75;5095590;28;20024;-62
2021/12/04 05:30:59;;;;;;;0.80;0.80;;;;;;;4.19;84.28;95765.53;5095701;28;20463;-63
2021/12/04 05:33:25;;;;;;;1.00;0.90;;;;;;;4.26;84.71;95767.94;5095558;28;20459;-65
2021/12/04 05:35:51;;;;;;;1.55;1.30;;;;;;;4.25;84.13;95767.97;5095338;28;20016;-65
2021/12/04 05:38:18;;;;;;;2.05;1.13;;;;;;;4.26;84.09;95769.66;5095305;28;20024;-64
2021/12/04 05:40:44;;;;;;;0.93;0.88;;;;;;;4.25;83.89;95776.56;5094106;28;20070;-62
2021/12/04 05:43:11;;;;;;;1.17;1.08;;;;;;;4.21;83.53;95766.34;5095272;28;20047;-64
2021/12/04 05:45:48;;;;;;;0.98;0.90;;;;;;;4.16;83.55;95766.47;5095266;28;20095;-64
2021/12/04 05:48:19;;;;;;;0.80;0.80;;;;;;;4.14;83.28;95766.50;5095318;28;20031;-65
2021/12/04 05:53:22;;;;;;;1.00;0.90;;;;;;;4.11;83.27;95776.06;5094138;28;20472;-65
2021/12/04 05:55:55;;;;;;;1.10;0.70;;;;;;;4.07;83.03;95770.13;5095129;28;20032;-65
2021/12/04 05:58:31;;;;;;;0.50;0.50;;;;;;;4.07;82.71;95777.03;5095018;28;20470;-65
2021/12/04 06:01:00;;;;;;;0.80;0.80;;;;;;;4.08;83.37;95768.38;5094930;28;20066;-65
2021/12/04 06:03:26;;;;;;;0.77;0.77;;;;;;;4.13;83.48;95780.31;5094914;28;20047;-65
2021/12/04 06:05:52;;;;;;;0.77;0.77;;;;;;;4.08;82.74;95768.38;5094946;28;20048;-66
2021/12/04 06:08:19;;;;;;;0.95;0.90;;;;;;;4.14;83.52;95763.03;5094796;28;20028;-63
2021/12/04 06:10:46;;;;;;;1.33;0.90;;;;;;;4.17;83.56;95761.25;5093423;28;20024;-64
2021/12/04 06:13:12;;;;;;;0.80;0.80;;;;;;;4.14;83.13;95755.28;5094716;28;20031;-63
2021/12/04 06:15:37;;;;;;;0.63;0.52;;;;;;;4.17;82.73;95758.66;5094714;28;20024;-64
2021/12/04 06:18:03;;;;;;;1.00;0.82;;;;;;;4.15;83.31;95754.38;5094592;28;20020;-62
2021/12/04 06:23:14;;;;;;;0.75;0.50;;;;;;;4.12;82.51;95757.91;5094369;28;20055;-66
2021/12/04 06:25:39;;;;;;;0.52;0.52;;;;;;;4.15;82.73;95772.50;5094511;28;20099;-64
2021/12/04 06:28:06;;;;;;;0.60;0.60;;;;;;;4.16;82.79;95774.22;5094472;28;20111;-63
2021/12/04 06:30:39;;;;;;;0.50;0.50;;;;;;;4.15;82.78;95778.53;5094296;28;20110;-65
2021/12/04 06:33:08;;;;;;;0.88;0.70;;;;;;;4.21;82.72;95785.31;5094335;28;20448;-63
2021/12/04 06:35:36;;;;;;;0.70;0.70;;;;;;;4.23;83.34;95780.94;5094299;28;20014;-65
2021/12/04 06:38:03;;;;;;;1.92;1.65;;;;;;;4.28;83.19;95776.50;5094206;28;20655;-64
2021/12/04 06:40:28;;;;;;;0.90;0.90;;;;;;;4.28;82.28;95775.66;5094286;28;20102;-65
2021/12/04 06:42:56;;;;;;;0.77;0.77;;;;;;;4.32;82.79;95771.22;5094004;28;20453;-63
2021/12/04 06:45:23;;;;;;;1.00;0.70;;;;;;;4.37;82.30;95772.81;5094051;28;20429;-63
2021/12/04 06:47:54;;;;;;;0.60;0.60;;;;;;;4.33;81.77;95778.13;5093998;28;20115;-63
2021/12/04 06:50:30;;;;;;;0.60;0.60;;;;;;;4.38;81.70;95782.31;5094159;28;20469;-65
2021/12/04 06:52:59;;;;;;;0.50;0.50;;;;;;;4.28;81.99;95779.09;5094094;28;20035;-63
2021/12/04 06:55:29;;;;;;;1.08;0.55;;;;;;;4.29;82.34;95785.13;5093955;28;20035;-64
2021/12/04 06:57:55;;;;;;;1.07;0.60;;;;;;;4.28;82.12;95789.44;5093823;28;20059;-63
2021/12/04 07:00:23;;;;;;;0.63;0.63;;;;;;;4.28;81.78;95793.78;5093873;28;20024;-65
2021/12/04 07:02:49;;;;;;;0.40;0.40;;;;;;;4.29;81.98;95782.53;5093697;28;20092;-62
2021/12/04 07:05:14;;;;;;;1.10;0.70;;;;;;;4.25;82.11;95794.69;5093605;28;20040;-64
2021/12/04 07:07:40;;;;;;;0.60;0.60;;;;;;;4.25;81.87;95797.28;5093695;28;20030;-64
2021/12/04 07:10:06;;;;;;;0.70;0.70;;;;;;;4.33;82.34;95802.28;5093684;28;20031;-63
2021/12/04 07:12:31;;;;;;;0.70;0.70;;;;;;;4.40;82.42;95800.41;5093735;28;20024;-64
2021/12/04 07:14:57;;;;;;;0.68;0.68;;;;;;;4.38;81.99;95795.25;5093622;28;20036;-63
2021/12/04 07:17:23;;;;;;;1.98;1.00;;;;;;;4.37;81.13;95797.88;5093573;28;20070;-63
2021/12/04 07:19:48;;;;;;;0.77;0.60;;;;;;;4.39;81.58;95802.13;5093464;28;20501;-66
2021/12/04 07:22:14;;;;;;;1.45;1.33;;;;;;;4.44;82.03;95802.00;5093197;28;20044;-64
2021/12/04 07:24:40;;;;;;;7.63;5.35;;;;;;;4.41;81.53;95804.69;5093474;28;20493;-64
2021/12/04 07:27:06;;;;;;;2.00;1.90;;;;;;;4.41;82.22;95807.25;5093377;28;20378;-63
2021/12/04 07:29:31;;;;;;;5.95;4.40;;;;;;;4.47;82.32;95807.13;5093288;28;20023;-63
2021/12/04 07:31:57;;;;;;;5.28;2.88;;;;;;;4.48;81.14;95824.34;5093383;28;20040;-64
2021/12/04 07:34:23;;;;;;;0.60;0.60;;;;;;;4.47;82.01;95834.75;5093268;28;20032;-65
2021/12/04 07:36:51;;;;;;;3.67;2.83;;;;;;;4.54;82.01;95824.19;5093286;28;20058;-64
2021/12/04 07:39:17;;;;;;;7.95;4.38;;;;;;;4.58;82.35;95827.56;5091966;28;20052;-65
2021/12/04 07:41:43;;;;;;;2.45;1.60;;;;;;;4.62;82.37;95834.38;5093135;28;20060;-63
2021/12/04 07:44:10;;;;;;;31.08;16.15;;;;;;;4.67;82.20;95840.28;5093232;28;20028;-63
2021/12/04 07:46:40;;;;;;;20.80;13.18;;;;;;;4.74;82.53;95840.13;5093174;28;20081;-66
2021/12/04 07:49:07;;;;;;;11.55;9.10;;;;;;;4.89;81.94;95837.13;5093166;28;20024;-63
2021/12/04 07:51:32;;;;;;;3.40;3.10;;;;;;;4.98;81.88;95836.03;5093112;28;20020;-66
2021/12/04 07:53:59;;;;;;;2.65;2.38;;;;;;;5.04;81.01;95837.59;5092932;28;20054;-64
2021/12/04 07:56:24;;;;;;;1.88;1.42;;;;;;;5.02;81.04;95835.06;5093013;28;20020;-62
2021/12/04 07:58:50;;;;;;;3.78;3.38;;;;;;;5.08;80.88;95841.81;5093095;28;20462;-64
2021/12/04 08:01:16;;;;;;;5.65;4.47;;;;;;;5.15;81.07;95853.72;5091814;28;20039;-64
2021/12/04 08:03:41;;;;;;;5.80;3.30;;;;;;;5.12;80.89;95850.38;5091741;28;20025;-62
2021/12/04 08:06:07;;;;;;;2.92;1.90;;;;;;;5.16;81.33;95857.16;5092947;28;20012;-63
2021/12/04 08:08:33;;;;;;;3.28;2.05;;;;;;;5.14;80.72;95864.13;5092751;28;20074;-65
2021/12/04 08:10:59;;;;;;;5.22;3.05;;;;;;;5.17;81.58;95864.03;5092931;28;20074;-64
2021/12/04 08:13:25;;;;;;;3.83;3.03;;;;;;;5.15;81.44;95868.44;5092839;28;20119;-66
2021/12/04 08:15:51;;;;;;;3.05;2.40;;;;;;;5.24;81.63;95862.97;5075499;28;20496;-65
2021/12/04 08:18:16;;;;;;;3.33;3.03;;;;;;;5.29;82.09;95868.91;5096960;28;20025;-63
2021/12/04 08:20:42;;;;;;;1.45;1.35;;;;;;;5.31;81.91;95876.63;5096917;28;20048;-65
2021/12/04 08:23:08;;;;;;;1.73;1.60;;;;;;;5.33;81.53;95877.47;5096601;28;20047;-63
2021/12/04 08:25:34;;;;;;;3.40;1.95;;;;;;;5.39;81.83;95879.03;5096800;28;20027;-62
2021/12/04 08:28:01;;;;;;;4.30;3.03;;;;;;;5.40;81.93;95883.31;5096761;28;20016;-66
2021/12/04 08:30:31;;;;;;;8.07;5.28;;;;;;;5.40;81.99;95875.53;5096654;28;20376;-63
2021/12/04 08:32:57;;;;;;;6.10;4.65;;;;;;;5.44;81.94;95883.19;5096662;28;20397;-66
2021/12/04 08:35:25;;;;;;;2.60;2.17;;;;;;;5.51;82.07;95877.84;5096671;28;20024;-64
2021/12/04 08:37:54;;;;;;;2.97;2.13;;;;;;;5.58;81.98;95881.94;5096544;28;20111;-64
2021/12/04 08:40:20;;;;;;;4.57;2.72;;;;;;;5.73;82.65;95883.25;5096532;28;20024;-65
2021/12/04 08:42:47;;;;;;;3.47;3.15;;;;;;;5.75;81.99;95885.81;5096394;28;20081;-62
2021/12/04 08:45:15;;;;;;;4.13;3.70;;;;;;;5.80;82.10;95884.75;5096485;28;20017;-65
2021/12/04 08:47:41;;;;;;;4.30;3.22;;;;;;;5.88;82.07;95884.53;5096284;28;20435;-67
2021/12/04 08:50:12;;;;;;;3.05;2.55;;;;;;;6.00;82.13;95880.72;5096276;28;20055;-65
2021/12/04 08:52:39;;;;;;;3.33;1.40;;;;;;;5.99;80.26;95885.97;5096298;28;20028;-64
2021/12/04 08:55:06;;;;;;;1.23;1.15;;;;;;;5.91;79.79;95888.78;5096208;28;20023;-64
2021/12/04 08:57:32;;;;;;;1.42;1.13;;;;;;;5.82;79.99;95895.09;5096231;28;20027;-65
2021/12/04 08:59:58;;;;;;;1.42;1.20;;;;;;;5.81;80.89;95888.22;5096326;28;20020;-66
2021/12/04 09:02:24;;;;;;;0.95;0.80;;;;;;;5.78;80.40;95893.50;5095952;28;20028;-65
2021/12/04 09:04:52;;;;;;;2.15;0.65;;;;;;;5.69;80.66;95884.25;5096053;28;20024;-63
2021/12/04 09:07:18;;;;;;;1.30;0.68;;;;;;;5.62;80.29;95887.88;5094772;28;20028;-67
2021/12/04 09:09:45;;;;;;;1.05;0.80;;;;;;;5.54;80.53;95875.97;5095931;28;20490;-65
2021/12/04 09:12:12;;;;;;;1.77;0.90;;;;;;;5.47;80.75;95874.47;5095865;28;20016;-67
2021/12/04 09:14:41;;;;;;;0.70;0.70;;;;;;;5.42;80.69;95872.00;5095796;28;20020;-63
2021/12/04 09:17:12;;;;;;;1.25;0.55;;;;;;;5.34;80.59;95868.78;5095859;28;20043;-64
2021/12/04 09:19:38;;;;;;;2.08;0.82;;;;;;;5.38;81.13;95862.59;5095773;28;20024;-66
2021/12/04 09:22:08;;;;;;;3.30;0.80;;;;;;;5.42;81.01;95864.22;5095398;28;20055;-65
2021/12/04 09:24:39;;;;;;;0.77;0.77;;;;;;;5.42;81.19;95861.63;5095749;28;20390;-66
2021/12/04 09:59:10;;;;;;;0.80;0.80;;;;;;;5.39;83.10;95825.38;5086855;28;20074;-62
2021/12/04 10:05:09;;;;;;;1.10;1.00;;;;;;;6.01;80.81;95819.25;5094902;28;20028;-64
2021/12/04 10:19:03;;;;;;;3.05;1.50;;;;;;;6.02;78.83;95807.97;5093717;28;20035;-63
2021/12/04 10:35:00;;;;;;;2.92;2.50;;;;;;;5.99;78.53;95824.47;5094407;28;20478;-64
2021/12/04 10:37:28;;;;;;;3.30;2.67;;;;;;;6.12;76.60;95827.59;5094302;28;20104;-63
2021/12/04 10:40:00;;;;;;;1.27;1.17;;;;;;;6.21;75.64;95815.19;5093650;28;20031;-64
2021/12/04 10:42:32;;;;;;;1.10;1.05;;;;;;;6.39;75.72;95818.97;5094054;28;20075;-64
2021/12/04 10:44:59;;;;;;;2.95;2.20;;;;;;;6.51;77.10;95822.91;5094255;28;20032;-65
2021/12/04 10:47:26;;;;;;;1.65;1.55;;;;;;;6.63;75.72;95819.03;5094017;28;20555;-61
2021/12/04 10:50:41;;;;;;;1.02;1.00;;;;;;;6.76;75.99;95809.91;5093982;28;20028;-64
2021/12/04 10:53:12;;;;;;;0.80;0.80;;;;;;;6.79;73.19;95819.34;5090643;28;20093;-65
2021/12/04 10:56:08;;;;;;;3.90;1.02;;;;;;;6.75;71.41;95822.97;5094124;28;20451;-66
2021/12/04 11:01:32;;;;;;;1.58;1.27;;;;;;;6.88;72.45;95828.59;5093901;28;20024;-66
2021/12/04 11:04:12;;;;;;;1.38;1.10;;;;;;;6.97;73.59;95828.28;5093830;28;20123;-62
2021/12/04 11:45:08;;;;;;;2.50;1.15;;;;;;;6.90;71.26;95808.59;5093230;28;20093;-65
2021/12/04 11:47:38;;;;;;;1.17;1.02;;;;;;;6.91;72.18;95816.34;5093174;28;20024;-64
2021/12/04 11:50:27;;;;;;;1.13;1.00;;;;;;;6.91;72.28;95808.53;5092849;28;20017;-62
2021/12/04 11:52:57;;;;;;;1.20;1.10;;;;;;;6.99;73.29;95808.28;5093023;28;20122;-65
2021/12/04 11:55:27;;;;;;;1.23;1.13;;;;;;;7.10;72.11;95805.28;5093125;28;20017;-66
2021/12/04 11:57:53;;;;;;;1.20;1.10;;;;;;;7.18;72.51;95816.28;5093083;28;20027;-64
2021/12/04 12:00:28;;;;;;;1.40;1.13;;;;;;;7.27;71.03;95816.81;5092997;28;20020;-62
2021/12/04 12:03:10;;;;;;;1.23;1.17;;;;;;;7.31;71.82;95821.88;5092932;28;20407;-62
2021/12/04 12:05:50;;;;;;;2.50;2.30;;;;;;;7.37;72.26;95826.00;5093130;28;20036;-65
2021/12/04 12:08:23;;;;;;;2.00;0.88;;;;;;;7.45;71.50;95836.13;5093064;28;20420;-67
2021/12/04 12:10:51;;;;;;;1.60;1.50;;;;;;;7.54;70.64;95837.53;5093143;28;20473;-62
2021/12/04 12:13:45;;;;;;;1.38;1.27;;;;;;;7.63;71.02;95839.81;5092888;28;20028;-63
2021/12/04 12:16:23;;;;;;;1.75;1.42;;;;;;;7.71;70.79;95844.72;5091419;28;20070;-63
2021/12/04 12:18:58;;;;;;;1.33;1.23;;;;;;;7.73;71.06;95837.69;5093043;28;20035;-64
2021/12/04 12:21:39;;;;;;;1.48;1.17;;;;;;;7.65;70.55;95844.94;5092620;28;20059;-65
2021/12/04 12:32:57;;;;;;;1.40;1.30;;;;;;;7.66;72.42;95854.44;5093156;28;20043;-65
2021/12/04 12:38:19;;;;;;;;;;;;;;;7.46;72.77;95856.88;5093508;28;20551;-63
2021/12/04 12:41:04;;;;;;;1.73;1.45;;;;;;;7.25;74.12;95857.69;5092778;28;20382;-63
2021/12/04 12:43:45;;;;;;;2.20;1.80;;;;;;;7.23;75.02;95855.13;5092675;28;20371;-64
2021/12/04 12:46:11;;;;;;;1.65;1.55;;;;;;;7.24;74.39;95851.63;5092822;28;20035;-64
2021/12/04 12:48:49;;;;;;;1.98;1.63;;;;;;;7.27;74.68;95850.66;5092588;28;20020;-63
2021/12/04 12:51:22;;;;;;;1.52;1.33;;;;;;;7.30;75.37;95847.94;5092631;28;20020;-63
2021/12/04 12:53:48;;;;;;;1.60;1.50;;;;;;;7.30;74.51;95838.38;5092608;28;20039;-63
2021/12/04 12:56:15;;;;;;;2.08;1.50;;;;;;;7.29;75.55;95841.88;5091248;28;20032;-64
2021/12/04 12:58:50;;;;;;;1.52;1.42;;;;;;;7.38;75.30;95842.47;5092443;28;20423;-66
2021/12/04 13:13:25;;;;;;;5.95;5.32;;;;;;;7.10;75.36;95836.47;5095976;28;20432;-66
2021/12/04 13:15:54;;;;;;;5.10;3.90;;;;;;;7.06;75.49;95835.75;5095948;28;20020;-64
2021/12/04 13:18:25;;;;;;;2.25;1.70;;;;;;;7.10;74.94;95846.06;5095870;28;20028;-67
2021/12/04 13:20:53;;;;;;;3.65;2.92;;;;;;;7.15;74.98;95842.38;5095720;28;20085;-66
2021/12/04 13:23:22;;;;;;;5.18;4.00;;;;;;;7.16;75.19;95832.81;5095775;28;20154;-65
2021/12/04 13:25:59;;;;;;;4.88;3.85;;;;;;;7.18;75.26;95847.47;5095646;28;20075;-66
2021/12/04 13:28:29;;;;;;;5.25;4.72;;;;;;;7.13;75.14;95845.94;5095699;28;20024;-61
2021/12/04 13:30:56;;;;;;;4.20;3.53;;;;;;;7.06;74.71;95846.16;5095372;28;20111;-65
2021/12/04 13:33:21;;;;;;;1.95;1.60;;;;;;;7.15;74.33;95846.72;5095549;28;20363;-63
2021/12/04 13:35:47;;;;;;;2.17;1.98;;;;;;;7.11;74.42;95848.59;5095493;28;20026;-63
2021/12/04 13:38:16;;;;;;;5.10;3.25;;;;;;;7.12;74.51;95847.69;5095478;28;20024;-66
2021/12/04 13:40:48;;;;;;;6.32;5.00;;;;;;;7.05;74.79;95852.25;5095325;28;20020;-63
2021/12/04 13:43:15;;;;;;;4.18;3.22;;;;;;;7.03;74.46;95848.88;5095340;28;20040;-64
2021/12/04 13:45:42;;;;;;;1.70;1.60;;;;;;;7.00;74.61;95848.13;5095395;28;20126;-63
2021/12/04 13:48:08;;;;;;;4.85;4.30;;;;;;;6.98;74.66;95844.75;5095301;28;20052;-65
2021/12/04 13:53:06;;;;;;;3.35;2.42;;;;;;;6.88;74.77;95841.59;5095254;28;20085;-67
2021/12/04 13:55:38;;;;;;;8.90;7.22;;;;;;;6.91;75.01;95846.69;5095187;28;20119;-65
2021/12/04 13:58:05;;;;;;;4.47;3.45;;;;;;;6.96;75.14;95837.00;5095224;28;20081;-63
2021/12/04 14:00:31;;;;;;;5.68;2.33;;;;;;;6.99;75.11;95836.88;5095085;28;20027;-65
2021/12/04 14:02:56;;;;;;;2.47;2.25;;;;;;;7.03;75.00;95835.00;5094904;28;20031;-66
2021/12/04 14:05:24;;;;;;;5.03;3.15;;;;;;;7.05;74.73;95839.25;5094849;28;20455;-64
2021/12/04 14:07:54;;;;;;;2.72;2.45;;;;;;;7.02;74.64;95843.72;5094948;28;20498;-61
2021/12/04 14:10:25;;;;;;;23.92;17.48;;;;;;;6.97;75.01;95837.81;5094819;28;20079;-63
2021/12/04 14:12:54;;;;;;;42.58;29.25;;;;;;;6.95;75.71;95845.66;5094719;28;20463;-65
2021/12/04 14:15:22;;;;;;;76.85;51.25;;;;;;;6.99;75.71;95849.03;5093814;28;20119;-65
2021/12/04 14:17:58;;;;;;;37.15;25.20;;;;;;;7.01;75.57;95853.25;5094682;28;20016;-66
2021/12/04 14:20:26;;;;;;;20.40;13.93;;;;;;;7.00;74.92;95863.72;5094632;28;20462;-63
2021/12/04 14:22:54;;;;;;;10.55;6.78;;;;;;;6.97;74.69;95872.47;5094375;28;20402;-64
2021/12/04 14:25:21;;;;;;;3.85;3.08;;;;;;;6.92;74.88;95874.38;5094525;28;20063;-62
2021/12/04 14:27:49;;;;;;;9.05;3.90;;;;;;;6.74;75.53;95881.91;5094425;28;20042;-65
2021/12/04 14:30:25;;;;;;;6.55;4.45;;;;;;;6.60;76.24;95881.50;5094479;28;20016;-64
2021/12/04 14:32:56;;;;;;;5.13;3.75;;;;;;;6.53;76.42;95871.31;5094393;28;20126;-65
2021/12/04 14:35:27;;;;;;;2.53;2.28;;;;;;;6.45;76.86;95866.34;5094405;28;20023;-64
2021/12/04 14:37:56;;;;;;;6.32;3.15;;;;;;;6.37;77.06;95865.78;5094340;28;20055;-65
2021/12/04 14:40:25;;;;;;;3.92;2.47;;;;;;;6.24;77.67;95856.66;5094305;28;20089;-66
2021/12/04 14:42:52;;;;;;;2.85;2.10;;;;;;;6.03;76.80;95848.63;5094134;28;20081;-62
2021/12/04 14:45:24;;;;;;;3.10;2.50;;;;;;;5.97;76.77;95843.63;5092825;28;20374;-64
2021/12/04 14:47:56;;;;;;;3.05;2.70;;;;;;;5.90;75.96;95854.19;5094024;28;20035;-67
2021/12/04 14:50:23;;;;;;;4.95;2.20;;;;;;;5.76;75.62;95856.34;5094078;28;20028;-63
2021/12/04 14:52:51;;;;;;;3.42;2.10;;;;;;;5.68;76.12;95843.59;5092837;28;20032;-66
2021/12/04 14:55:24;;;;;;;3.20;2.50;;;;;;;5.55;76.21;95837.91;5093928;28;20111;-65
2021/12/04 14:57:51;;;;;;;2.80;2.50;;;;;;;5.49;76.18;95831.19;5094029;28;20103;-64